Time;durP1;ratioP1;P1;durP2;ratioP2;P2;SDS_P1;SDS_P2;PMS_P1;PMS_P2;Temp;Humidity;BMP_temperature;BMP_pressure;BME280_temperature;BME280_humidity;BME280_pressure;Samples;Min_cycle;Max_cycle;Signal;HPM_P1;HPM_P2
2021/09/20 00:02:22;;;;;;;8.98;5.85;;;13.80;81.60;;;;;;5037947;28;20112;-81
2021/09/20 00:04:47;;;;;;;8.85;5.15;;;13.80;81.50;;;;;;5054660;28;20032;-81
2021/09/20 00:07:13;;;;;;;7.82;5.07;;;13.70;81.60;;;;;;5037959;28;20025;-81
2021/09/20 00:09:39;;;;;;;7.40;5.03;;;13.70;81.70;;;;;;5037605;28;20057;-81
2021/09/20 00:12:04;;;;;;;6.90;4.80;;;13.70;81.60;;;;;;5055635;28;20061;-81
2021/09/20 00:14:30;;;;;;;7.65;5.03;;;13.70;81.50;;;;;;5055523;28;20112;-81
2021/09/20 00:16:56;;;;;;;6.90;5.38;;;13.70;81.60;;;;;;5054096;28;20091;-81
2021/09/20 00:19:22;;;;;;;8.25;5.70;;;13.60;81.70;;;;;;5037677;28;20025;-80
2021/09/20 00:21:47;;;;;;;8.93;5.35;;;13.50;81.80;;;;;;5054960;28;20032;-81
2021/09/20 00:24:13;;;;;;;8.73;5.43;;;13.50;82.10;;;;;;5035597;28;20029;-81
2021/09/20 00:26:38;;;;;;;8.40;5.13;;;13.40;82.30;;;;;;5052147;28;20045;-80
2021/09/20 00:29:04;;;;;;;5.35;4.68;;;13.40;82.40;;;;;;5053890;28;20037;-80
2021/09/20 00:31:30;;;;;;;9.30;5.82;;;13.40;82.60;;;;;;5055068;28;20040;-80
2021/09/20 00:33:55;;;;;;;8.68;5.50;;;13.30;82.60;;;;;;5053507;28;20041;-80
2021/09/20 00:36:21;;;;;;;5.85;5.18;;;13.30;82.80;;;;;;5037443;28;20112;-80
2021/09/20 00:38:46;;;;;;;8.55;5.40;;;13.20;83.00;;;;;;5020796;28;20040;-80
2021/09/20 00:41:12;;;;;;;7.40;5.45;;;13.20;83.10;;;;;;5004565;28;20545;-80
2021/09/20 00:43:38;;;;;;;7.13;5.10;;;13.20;83.30;;;;;;5037314;28;20029;-80
2021/09/20 00:46:08;;;;;;;7.35;5.20;;;13.20;83.40;;;;;;5037122;28;20021;-80
2021/09/20 00:48:34;;;;;;;10.90;5.20;;;13.20;83.60;;;;;;5054892;28;20108;-80
2021/09/20 00:51:01;;;;;;;7.35;5.35;;;13.20;83.50;;;;;;5054917;28;20415;-80
2021/09/20 00:53:26;;;;;;;8.63;5.13;;;13.20;83.90;;;;;;5054754;28;20041;-80
2021/09/20 00:55:52;;;;;;;6.05;5.30;;;13.20;83.40;;;;;;5054882;28;20393;-80
2021/09/20 00:58:18;;;;;;;9.65;5.80;;;13.10;83.60;;;;;;5053708;28;20039;-80
2021/09/20 01:00:44;;;;;;;6.15;5.43;;;13.20;83.60;;;;;;5036937;28;20087;-80
2021/09/20 01:03:09;;;;;;;7.25;5.40;;;13.20;83.50;;;;;;5054736;28;20032;-80
2021/09/20 01:05:35;;;;;;;9.73;5.45;;;13.20;84.00;;;;;;5036877;28;20025;-80
2021/09/20 01:08:01;;;;;;;6.70;5.93;;;13.20;83.30;;;;;;5053507;28;20029;-80
2021/09/20 01:10:27;;;;;;;11.93;6.90;;;13.10;83.40;;;;;;5054668;28;20029;-80
2021/09/20 01:12:52;;;;;;;9.50;7.00;;;13.10;83.40;;;;;;5036699;28;20116;-80
2021/09/20 01:15:18;;;;;;;7.95;6.72;;;13.10;83.40;;;;;;5053355;28;20120;-80
2021/09/20 01:17:44;;;;;;;10.73;6.72;;;13.00;83.40;;;;;;5036730;28;20037;-80
2021/09/20 01:20:11;;;;;;;8.85;7.45;;;13.00;83.60;;;;;;5035991;28;20467;-80
2021/09/20 01:22:38;;;;;;;10.50;6.55;;;13.00;83.80;;;;;;5016809;28;20124;-80
2021/09/20 01:25:05;;;;;;;8.15;6.75;;;12.90;83.70;;;;;;5034350;28;20018;-80
2021/09/20 01:27:30;;;;;;;8.50;6.85;;;12.90;83.70;;;;;;5033233;28;20033;-80
2021/09/20 01:29:56;;;;;;;9.48;7.22;;;12.90;83.80;;;;;;5034206;28;20033;-80
2021/09/20 01:32:22;;;;;;;11.85;7.68;;;12.80;83.90;;;;;;5016513;28;20037;-80
2021/09/20 01:34:48;;;;;;;9.85;7.40;;;12.90;84.00;;;;;;5016630;28;20504;-80
2021/09/20 01:37:13;;;;;;;11.25;8.07;;;12.80;84.10;;;;;;5051672;28;20035;-80
2021/09/20 01:39:40;;;;;;;9.35;7.15;;;12.80;84.10;;;;;;5036192;28;20090;-80
2021/09/20 01:42:07;;;;;;;9.90;7.45;;;12.80;84.10;;;;;;5052430;28;20028;-80
2021/09/20 01:44:32;;;;;;;10.75;8.00;;;12.80;84.20;;;;;;5036018;28;20025;-80
2021/09/20 01:46:59;;;;;;;10.63;7.65;;;12.70;84.80;;;;;;5053813;28;20496;-80
2021/09/20 01:49:26;;;;;;;9.82;8.00;;;12.70;84.30;;;;;;5053774;28;20098;-80
2021/09/20 01:51:51;;;;;;;9.40;7.05;;;12.70;84.50;;;;;;5035662;28;20083;-80
2021/09/20 01:54:18;;;;;;;10.18;7.35;;;12.70;84.60;;;;;;5052415;28;20052;-80
2021/09/20 01:56:44;;;;;;;10.50;7.60;;;12.60;85.30;;;;;;5035994;28;20028;-80
2021/09/20 01:59:10;;;;;;;13.80;8.40;;;12.60;84.80;;;;;;5053404;28;20039;-80
2021/09/20 02:01:36;;;;;;;12.00;7.72;;;12.60;84.90;;;;;;5052611;28;20530;-80
2021/09/20 02:04:03;;;;;;;12.30;8.10;;;12.50;85.10;;;;;;5052396;28;20025;-80
2021/09/20 02:06:29;;;;;;;13.50;8.35;;;12.50;85.10;;;;;;5053634;28;20025;-81
2021/09/20 02:08:55;;;;;;;11.73;8.52;;;12.50;85.30;;;;;;5053544;28;20025;-80
2021/09/20 02:11:22;;;;;;;11.45;7.93;;;12.40;85.30;;;;;;5052325;28;20083;-80
2021/09/20 02:13:49;;;;;;;11.20;8.48;;;12.40;85.50;;;;;;5035284;28;20040;-80
2021/09/20 02:16:15;;;;;;;13.75;8.18;;;12.30;85.60;;;;;;5053462;28;20025;-80
2021/09/20 02:18:41;;;;;;;11.93;8.10;;;12.30;85.80;;;;;;5035466;28;20036;-80
2021/09/20 02:21:08;;;;;;;10.90;8.32;;;12.20;85.80;;;;;;5035238;28;20116;-80
2021/09/20 02:23:35;;;;;;;13.23;8.57;;;12.20;85.80;;;;;;5053211;28;20040;-80
2021/09/20 02:26:02;;;;;;;13.88;8.90;;;12.20;86.00;;;;;;5035501;28;20056;-80
2021/09/20 02:28:28;;;;;;;12.32;8.20;;;12.10;86.00;;;;;;5053295;28;20033;-80
2021/09/20 02:30:53;;;;;;;11.32;8.25;;;12.20;86.10;;;;;;5035368;28;20040;-80
2021/09/20 02:33:19;;;;;;;10.15;8.07;;;12.20;86.00;;;;;;5053015;28;20033;-80
2021/09/20 02:35:46;;;;;;;13.70;8.15;;;12.10;85.90;;;;;;5052966;28;20078;-80
2021/09/20 02:38:11;;;;;;;15.82;8.82;;;12.10;85.90;;;;;;5053297;28;20508;-80
2021/09/20 02:40:37;;;;;;;11.38;8.52;;;12.10;85.80;;;;;;5035117;28;20029;-80
2021/09/20 02:43:03;;;;;;;11.20;8.55;;;12.10;85.90;;;;;;5031853;28;20025;-80
2021/09/20 02:45:29;;;;;;;11.52;8.57;;;12.00;86.00;;;;;;5031960;28;20029;-80
2021/09/20 02:47:54;;;;;;;13.10;8.70;;;12.00;86.10;;;;;;5031866;28;20029;-80
2021/09/20 02:50:20;;;;;;;12.57;8.55;;;12.00;86.10;;;;;;5026751;28;20827;-80
2021/09/20 02:52:46;;;;;;;12.50;8.68;;;12.00;86.20;;;;;;5053491;28;20032;-80
2021/09/20 02:55:12;;;;;;;12.43;8.35;;;11.90;86.90;;;;;;5034927;28;20056;-80
2021/09/20 02:57:38;;;;;;;15.10;9.90;;;12.00;86.50;;;;;;5052968;28;20052;-80
2021/09/20 03:00:06;;;;;;;13.13;9.00;;;11.90;86.40;;;;;;5051587;28;20025;-80
2021/09/20 03:02:32;;;;;;;13.13;9.00;;;11.90;86.50;;;;;;5035000;28;20378;-80
2021/09/20 03:04:58;;;;;;;12.75;8.95;;;11.90;86.50;;;;;;5035222;28;20030;-80
2021/09/20 03:07:23;;;;;;;13.40;9.27;;;11.80;86.50;;;;;;5051827;28;20017;-80
2021/09/20 03:09:49;;;;;;;12.85;9.57;;;11.80;86.80;;;;;;5015115;28;20557;-80
2021/09/20 03:12:14;;;;;;;13.45;9.32;;;11.80;86.80;;;;;;5015141;28;20037;-80
2021/09/20 03:14:41;;;;;;;12.75;9.13;;;11.80;87.00;;;;;;5031693;28;20498;-80
2021/09/20 03:17:07;;;;;;;17.83;11.18;;;11.70;86.90;;;;;;5031155;28;20076;-80
2021/09/20 03:19:32;;;;;;;14.23;9.68;;;11.70;86.80;;;;;;5031696;28;20034;-80
2021/09/20 03:21:58;;;;;;;14.70;10.18;;;11.70;87.00;;;;;;5032965;28;20046;-80
2021/09/20 03:24:24;;;;;;;14.85;9.90;;;11.70;87.20;;;;;;5015162;28;20498;-80
2021/09/20 03:26:50;;;;;;;14.18;9.82;;;11.60;87.10;;;;;;5031306;28;20494;-80
2021/09/20 03:29:16;;;;;;;14.48;10.80;;;11.60;87.20;;;;;;5015116;28;20064;-80
2021/09/20 03:31:42;;;;;;;14.70;10.27;;;11.60;87.30;;;;;;5044850;28;20478;-80
2021/09/20 03:34:07;;;;;;;12.60;9.88;;;11.60;87.40;;;;;;5034976;28;20115;-80
2021/09/20 03:36:33;;;;;;;16.23;9.55;;;11.60;87.40;;;;;;5051585;28;20033;-80
2021/09/20 03:38:59;;;;;;;16.27;9.93;;;11.60;87.50;;;;;;5034689;28;20363;-80
2021/09/20 03:41:25;;;;;;;14.80;10.50;;;11.50;87.50;;;;;;5052456;28;20070;-80
2021/09/20 03:43:50;;;;;;;15.10;10.35;;;11.60;87.50;;;;;;5054043;28;20033;-80
2021/09/20 03:46:16;;;;;;;14.25;10.20;;;11.60;87.50;;;;;;5038502;28;20028;-80
2021/09/20 03:48:42;;;;;;;16.70;9.75;;;11.50;87.50;;;;;;5055090;28;20053;-80
2021/09/20 03:51:08;;;;;;;12.15;9.07;;;11.50;87.70;;;;;;5054363;28;20036;-80
2021/09/20 03:53:34;;;;;;;18.75;9.85;;;11.50;87.70;;;;;;5055853;28;20041;-80
2021/09/20 03:56:00;;;;;;;13.90;10.18;;;11.50;87.60;;;;;;5054640;28;20395;-80
2021/09/20 03:58:26;;;;;;;14.70;9.85;;;11.50;87.60;;;;;;5056145;28;20025;-80
2021/09/20 04:00:51;;;;;;;14.52;10.10;;;11.50;87.60;;;;;;5055541;28;20043;-80
2021/09/20 04:03:17;;;;;;;13.68;9.68;;;11.50;87.60;;;;;;5021781;28;20025;-80
2021/09/20 04:05:43;;;;;;;15.40;10.60;;;11.50;87.60;;;;;;5055807;28;20086;-80
2021/09/20 04:08:10;;;;;;;15.52;11.27;;;11.50;87.70;;;;;;5038046;28;20147;-80
2021/09/20 04:10:36;;;;;;;19.88;10.18;;;11.50;87.70;;;;;;5055755;28;20020;-80
2021/09/20 04:13:02;;;;;;;15.88;9.93;;;11.50;87.90;;;;;;5055805;28;20032;-80
2021/09/20 04:15:27;;;;;;;19.00;10.38;;;11.30;87.80;;;;;;5037946;28;20033;-80
2021/09/20 04:17:53;;;;;;;17.35;10.65;;;11.40;88.00;;;;;;5034220;28;20029;-80
2021/09/20 04:20:19;;;;;;;16.92;11.45;;;11.30;87.90;;;;;;5034117;28;20029;-80
2021/09/20 04:22:44;;;;;;;17.17;10.60;;;11.30;87.90;;;;;;5034111;28;20028;-81
2021/09/20 04:25:11;;;;;;;17.98;10.93;;;11.30;88.60;;;;;;5034283;28;20420;-80
2021/09/20 04:27:37;;;;;;;14.18;10.02;;;11.30;88.20;;;;;;5035551;28;20048;-80
2021/09/20 04:30:04;;;;;;;15.85;10.68;;;11.20;88.10;;;;;;5035625;28;20029;-80
2021/09/20 04:32:30;;;;;;;13.25;9.95;;;11.20;88.30;;;;;;5034182;28;20053;-80
2021/09/20 04:34:56;;;;;;;16.25;10.60;;;11.20;88.50;;;;;;5037429;28;20082;-80
2021/09/20 04:37:22;;;;;;;13.75;10.13;;;11.10;88.60;;;;;;5055269;28;20029;-80
2021/09/20 04:39:48;;;;;;;15.10;10.32;;;11.10;88.60;;;;;;5017476;28;20187;-80
2021/09/20 04:42:14;;;;;;;15.25;10.88;;;11.10;88.70;;;;;;5033972;28;20021;-80
2021/09/20 04:44:41;;;;;;;14.27;10.27;;;11.10;88.70;;;;;;5034187;28;20030;-80
2021/09/20 04:47:07;;;;;;;13.93;10.73;;;11.10;88.70;;;;;;5035089;28;20438;-80
2021/09/20 04:49:33;;;;;;;14.00;9.85;;;11.10;88.70;;;;;;5035159;28;20177;-80
2021/09/20 04:51:59;;;;;;;16.30;10.82;;;11.10;88.80;;;;;;5046376;28;20478;-80
2021/09/20 04:54:25;;;;;;;14.18;10.45;;;11.00;88.80;;;;;;5019925;28;20056;-80
2021/09/20 04:56:51;;;;;;;16.77;10.57;;;11.00;88.90;;;;;;5036628;28;20040;-80
2021/09/20 04:59:16;;;;;;;14.05;10.55;;;10.90;88.90;;;;;;5003947;28;20025;-80
2021/09/20 05:01:42;;;;;;;15.95;10.38;;;10.90;89.10;;;;;;5054926;28;20097;-80
2021/09/20 05:04:09;;;;;;;14.38;10.15;;;10.90;89.10;;;;;;5054762;28;20049;-80
2021/09/20 05:06:35;;;;;;;14.85;10.82;;;10.90;89.20;;;;;;5036879;28;20065;-80
2021/09/20 05:09:03;;;;;;;20.42;10.77;;;10.90;89.20;;;;;;5054318;28;20021;-80
2021/09/20 05:11:29;;;;;;;18.13;11.50;;;10.90;89.30;;;;;;5036003;28;20055;-80
2021/09/20 05:13:54;;;;;;;16.00;11.13;;;10.90;89.20;;;;;;5036769;28;20447;-81
2021/09/20 05:16:20;;;;;;;14.77;10.48;;;10.90;89.30;;;;;;5036640;28;20025;-81
2021/09/20 05:18:45;;;;;;;16.83;10.07;;;10.90;89.20;;;;;;5054438;28;20017;-82
2021/09/20 05:21:11;;;;;;;15.25;10.20;;;10.80;89.20;;;;;;5054020;28;20035;-80
2021/09/20 05:23:37;;;;;;;16.05;10.23;;;10.80;89.30;;;;;;5036582;28;20123;-80
2021/09/20 05:26:03;;;;;;;14.57;10.50;;;10.80;89.30;;;;;;5054241;28;20021;-80
2021/09/20 05:28:29;;;;;;;18.25;11.45;;;10.80;89.30;;;;;;5054390;28;20041;-81
2021/09/20 05:30:54;;;;;;;16.35;10.60;;;10.80;89.40;;;;;;5054016;28;20711;-81
2021/09/20 05:33:20;;;;;;;15.35;10.13;;;10.70;89.50;;;;;;5052904;28;20063;-81
2021/09/20 05:35:46;;;;;;;18.85;11.02;;;10.70;89.60;;;;;;5053039;28;20396;-81
2021/09/20 05:38:14;;;;;;;13.98;10.25;;;10.70;89.90;;;;;;5052824;28;20025;-81
2021/09/20 05:40:40;;;;;;;21.45;11.20;;;10.70;89.70;;;;;;5053947;28;20024;-81
2021/09/20 05:43:06;;;;;;;16.52;11.15;;;10.70;89.60;;;;;;5035933;28;20017;-81
2021/09/20 05:45:31;;;;;;;13.88;10.20;;;10.70;89.80;;;;;;5052710;28;20535;-81
2021/09/20 05:47:59;;;;;;;16.58;9.90;;;10.70;89.70;;;;;;5035590;28;20028;-81
2021/09/20 05:50:26;;;;;;;13.32;10.15;;;10.70;89.80;;;;;;5036152;28;20036;-81
2021/09/20 05:52:51;;;;;;;13.43;10.38;;;10.80;89.90;;;;;;5036092;28;20036;-80
2021/09/20 05:55:17;;;;;;;18.88;11.20;;;10.80;89.80;;;;;;5032517;28;20050;-80
2021/09/20 05:57:42;;;;;;;16.00;10.48;;;10.80;89.70;;;;;;5032797;28;20121;-81
2021/09/20 06:00:09;;;;;;;14.90;9.88;;;10.90;89.50;;;;;;5015960;28;20038;-81
2021/09/20 06:02:35;;;;;;;14.27;10.43;;;11.00;89.30;;;;;;5032530;28;20025;-81
2021/09/20 06:05:01;;;;;;;14.73;10.10;;;11.00;89.00;;;;;;5033561;28;20048;-81
2021/09/20 06:07:26;;;;;;;15.95;10.20;;;11.10;88.80;;;;;;5048636;28;20075;-81
2021/09/20 06:09:52;;;;;;;15.57;9.35;;;11.10;88.80;;;;;;5033572;28;20497;-81
2021/09/20 06:12:19;;;;;;;19.83;11.60;;;11.10;88.80;;;;;;5032447;28;20180;-81
2021/09/20 06:14:45;;;;;;;16.23;10.55;;;11.20;88.50;;;;;;5032256;28;20166;-81
2021/09/20 06:17:10;;;;;;;17.60;10.68;;;11.20;88.40;;;;;;5031907;28;20116;-81
2021/09/20 06:19:36;;;;;;;17.52;10.45;;;11.30;88.40;;;;;;5048362;28;20041;-81
2021/09/20 06:22:02;;;;;;;15.63;10.48;;;11.30;88.30;;;;;;5011782;28;20104;-81
2021/09/20 06:24:28;;;;;;;13.50;10.20;;;11.30;88.40;;;;;;5028833;28;20033;-81
2021/09/20 06:26:53;;;;;;;20.88;10.38;;;11.30;88.50;;;;;;5013488;28;20889;-81
2021/09/20 06:29:19;;;;;;;15.23;10.23;;;11.30;88.30;;;;;;4995899;28;20053;-81
2021/09/20 06:31:45;;;;;;;18.88;11.18;;;11.30;88.20;;;;;;5012295;28;20034;-81
2021/09/20 06:34:11;;;;;;;15.43;10.38;;;11.30;88.00;;;;;;5018338;28;20095;-81
2021/09/20 06:36:37;;;;;;;16.48;11.63;;;11.40;88.10;;;;;;5031682;28;20116;-81
2021/09/20 06:39:03;;;;;;;16.58;10.60;;;11.50;88.00;;;;;;4998514;28;20403;-81
2021/09/20 06:41:28;;;;;;;15.82;10.40;;;11.50;87.90;;;;;;5012892;28;20044;-81
2021/09/20 06:43:54;;;;;;;14.98;9.73;;;11.60;87.70;;;;;;5030290;28;20109;-81
2021/09/20 06:46:20;;;;;;;18.88;11.10;;;11.70;87.50;;;;;;5028519;28;20442;-81
2021/09/20 06:48:45;;;;;;;17.90;9.90;;;11.80;87.10;;;;;;5004010;28;20038;-81
2021/09/20 06:51:11;;;;;;;16.85;11.05;;;11.90;86.90;;;;;;5048347;28;20034;-81
2021/09/20 06:53:37;;;;;;;14.57;10.27;;;11.90;86.70;;;;;;5044739;28;20057;-82
2021/09/20 06:56:03;;;;;;;18.52;11.20;;;12.00;86.40;;;;;;5015302;28;20022;-82
2021/09/20 06:58:29;;;;;;;19.95;11.57;;;12.10;86.30;;;;;;5016163;28;20144;-81
2021/09/20 07:00:54;;;;;;;18.00;10.27;;;12.20;86.10;;;;;;5013080;28;20194;-81
2021/09/20 07:03:20;;;;;;;15.48;11.10;;;12.30;85.90;;;;;;5011928;28;20030;-81
2021/09/20 07:05:45;;;;;;;13.55;10.73;;;12.40;85.50;;;;;;5010379;28;20037;-81
2021/09/20 07:08:11;;;;;;;18.13;10.70;;;12.50;85.10;;;;;;5015181;28;20104;-81
2021/09/20 07:10:37;;;;;;;18.42;11.13;;;12.50;84.90;;;;;;5025623;28;20390;-82
2021/09/20 07:13:08;;;;;;;14.27;10.68;;;12.60;84.90;;;;;;5033088;28;20449;-81
2021/09/20 07:15:34;;;;;;;17.42;11.30;;;12.70;84.60;;;;;;5043985;28;20022;-81
2021/09/20 07:18:00;;;;;;;14.43;10.23;;;12.80;83.90;;;;;;5019291;28;20033;-81
2021/09/20 07:20:25;;;;;;;16.08;10.80;;;12.80;83.90;;;;;;5035292;28;20786;-81
2021/09/20 07:22:51;;;;;;;16.33;11.18;;;12.80;83.80;;;;;;5052140;28;20030;-81
2021/09/20 07:25:16;;;;;;;16.90;11.38;;;12.80;83.80;;;;;;5036255;28;20040;-81
2021/09/20 07:27:42;;;;;;;18.60;10.50;;;12.90;84.00;;;;;;4994616;28;20029;-81
2021/09/20 07:30:09;;;;;;;15.13;10.30;;;13.00;84.10;;;;;;5036605;28;20364;-82
2021/09/20 07:32:35;;;;;;;15.77;10.93;;;13.10;83.70;;;;;;5033499;28;20076;-81
2021/09/20 07:35:00;;;;;;;14.00;10.55;;;13.30;83.00;;;;;;5005163;28;20037;-81
2021/09/20 07:37:26;;;;;;;14.57;9.75;;;13.40;82.60;;;;;;5016203;28;20033;-81
2021/09/20 07:39:51;;;;;;;14.63;10.68;;;13.60;82.50;;;;;;5031474;28;20073;-81
2021/09/20 07:42:17;;;;;;;16.98;10.45;;;13.70;82.00;;;;;;5017820;28;20045;-81
2021/09/20 07:44:43;;;;;;;16.65;10.85;;;13.70;81.70;;;;;;5051646;28;20076;-81
2021/09/20 07:47:08;;;;;;;16.13;10.82;;;13.80;81.80;;;;;;5024311;28;20434;-82
2021/09/20 07:49:34;;;;;;;15.38;10.13;;;13.90;81.70;;;;;;5018225;28;20187;-82
2021/09/20 07:52:00;;;;;;;17.17;10.23;;;14.00;81.00;;;;;;5034744;28;20044;-81
2021/09/20 07:54:26;;;;;;;13.38;10.50;;;14.10;80.70;;;;;;5048021;28;20056;-81
2021/09/20 07:56:51;;;;;;;16.13;10.27;;;14.20;80.80;;;;;;5038231;28;20028;-81
2021/09/20 07:59:17;;;;;;;19.23;10.93;;;14.20;80.70;;;;;;5021581;28;20063;-81
2021/09/20 08:01:42;;;;;;;16.33;10.80;;;14.30;79.70;;;;;;5021553;28;20036;-81
2021/09/20 08:04:08;;;;;;;18.40;11.38;;;14.40;79.60;;;;;;5037825;28;20123;-81
2021/09/20 08:06:34;;;;;;;17.67;10.38;;;14.40;79.30;;;;;;5021610;28;20040;-81
2021/09/20 08:09:00;;;;;;;15.45;11.00;;;14.50;79.10;;;;;;5036893;28;20143;-81
2021/09/20 08:11:27;;;;;;;14.85;10.45;;;14.50;79.40;;;;;;5032500;28;20402;-81
2021/09/20 08:13:53;;;;;;;15.20;10.20;;;14.50;78.80;;;;;;5035548;28;20478;-80
2021/09/20 08:16:19;;;;;;;14.30;10.10;;;14.70;78.60;;;;;;5052818;28;20075;-81
2021/09/20 08:18:45;;;;;;;13.48;10.40;;;14.80;78.50;;;;;;5052118;28;20033;-81
2021/09/20 08:21:11;;;;;;;15.00;10.07;;;15.00;77.80;;;;;;5034992;28;20052;-81
2021/09/20 08:23:37;;;;;;;16.25;10.40;;;15.10;77.30;;;;;;5036274;28;20033;-81
2021/09/20 08:26:05;;;;;;;14.68;10.88;;;15.20;76.90;;;;;;5037510;28;20025;-81
2021/09/20 08:28:31;;;;;;;16.80;10.63;;;15.30;76.80;;;;;;5037519;28;20025;-80
2021/09/20 08:30:57;;;;;;;13.68;10.27;;;15.40;76.70;;;;;;5036822;28;20044;-81
2021/09/20 08:33:22;;;;;;;12.43;9.90;;;15.50;76.10;;;;;;5019863;28;20040;-81
2021/09/20 08:35:48;;;;;;;16.33;10.45;;;15.50;75.80;;;;;;5053436;28;20078;-81
2021/09/20 08:38:14;;;;;;;16.58;9.98;;;15.60;75.20;;;;;;5020941;28;20033;-81
2021/09/20 08:40:39;;;;;;;12.50;9.38;;;15.60;75.00;;;;;;5055107;28;20478;-81
2021/09/20 08:43:05;;;;;;;20.10;10.55;;;15.70;75.20;;;;;;5037401;28;20079;-81
2021/09/20 08:45:31;;;;;;;13.82;10.35;;;15.70;75.40;;;;;;5020708;28;20029;-81
2021/09/20 08:48:00;;;;;;;14.25;9.95;;;15.90;75.60;;;;;;5053941;28;20398;-81
2021/09/20 08:50:33;;;;;;;15.88;9.90;;;16.00;73.60;;;;;;5037013;28;20025;-81
2021/09/20 08:52:59;;;;;;;14.40;9.45;;;16.00;73.40;;;;;;5017175;28;20143;-81
2021/09/20 08:55:26;;;;;;;14.90;9.80;;;15.90;73.80;;;;;;5044523;28;20398;-80
2021/09/20 08:57:52;;;;;;;13.75;9.40;;;16.00;73.90;;;;;;5033543;28;20099;-80
2021/09/20 09:00:18;;;;;;;14.07;8.98;;;16.10;73.70;;;;;;5034842;28;20064;-80
2021/09/20 09:02:44;;;;;;;12.85;9.57;;;16.20;73.20;;;;;;5034930;28;20037;-81
2021/09/20 09:05:45;;;;;;;15.23;9.98;;;16.20;71.70;;;;;;5034885;28;20463;-81
2021/09/20 09:08:11;;;;;;;11.18;9.02;;;16.20;72.40;;;;;;5037154;28;20021;-80
2021/09/20 09:10:37;;;;;;;13.05;9.48;;;16.10;72.70;;;;;;5053382;28;20075;-80
2021/09/20 09:13:07;;;;;;;13.38;9.07;;;16.10;72.60;;;;;;5033532;28;20025;-80
2021/09/20 09:15:35;;;;;;;13.07;9.07;;;16.10;72.40;;;;;;5031884;28;20025;-80
2021/09/20 09:18:02;;;;;;;11.43;7.80;;;16.10;72.50;;;;;;5036370;28;20115;-85
2021/09/20 09:20:36;;;;;;;14.70;8.48;;;16.00;73.00;;;;;;5035907;28;20064;-84
2021/09/20 09:23:03;;;;;;;12.88;9.63;;;16.20;74.60;;;;;;5036549;28;20029;-81
2021/09/20 09:25:42;;;;;;;12.80;8.95;;;16.50;72.20;;;;;;5053751;28;20033;-81
2021/09/20 09:28:29;;;;;;;14.57;8.48;;;16.60;71.20;;;;;;5036215;28;20021;-81
2021/09/20 09:31:02;;;;;;;11.63;8.18;;;16.60;71.00;;;;;;5036219;28;20029;-81
2021/09/20 09:33:44;;;;;;;12.38;8.63;;;16.60;71.10;;;;;;5054191;28;20044;-81
2021/09/20 09:36:14;;;;;;;10.52;8.57;;;16.60;70.80;;;;;;5054070;28;20025;-81
2021/09/20 09:39:00;;;;;;;11.13;8.77;;;16.50;71.30;;;;;;5036130;28;20059;-81
2021/09/20 09:41:34;;;;;;;9.52;8.55;;;16.40;71.60;;;;;;5035557;28;20075;-81
2021/09/20 09:44:05;;;;;;;13.60;9.20;;;16.40;72.10;;;;;;5053913;28;20029;-81
2021/09/20 09:46:37;;;;;;;12.05;7.97;;;16.50;72.20;;;;;;5035881;28;20028;-81
2021/09/20 09:49:11;;;;;;;14.27;9.18;;;16.70;71.70;;;;;;5053025;28;20103;-84
2021/09/20 09:52:01;;;;;;;10.15;8.13;;;16.90;71.00;;;;;;5032379;28;20040;-83
2021/09/20 09:54:32;;;;;;;11.48;7.80;;;17.10;70.70;;;;;;5035139;28;20136;-83
2021/09/20 09:57:22;;;;;;;10.30;7.13;;;17.20;71.10;;;;;;5035402;28;20040;-85
2021/09/20 09:59:59;;;;;;;8.48;7.35;;;17.40;70.50;;;;;;5053434;28;20017;-83
2021/09/20 10:02:33;;;;;;;16.40;8.00;;;17.60;70.40;;;;;;5035503;28;20032;-85
2021/09/20 10:05:05;;;;;;;11.77;8.38;;;17.70;69.60;;;;;;5035422;28;20017;-83
2021/09/20 10:07:40;;;;;;;10.93;7.50;;;17.90;68.90;;;;;;5053141;28;20013;-83
2021/09/20 10:10:10;;;;;;;10.88;6.80;;;18.10;68.60;;;;;;5031794;28;20108;-83
2021/09/20 10:12:38;;;;;;;12.55;6.97;;;18.30;68.10;;;;;;5033340;28;20041;-82
2021/09/20 10:15:06;;;;;;;11.18;7.00;;;18.50;67.40;;;;;;5018340;28;20013;-84
2021/09/20 10:17:32;;;;;;;8.40;7.15;;;18.60;65.90;;;;;;5031119;28;20029;-83
2021/09/20 10:19:59;;;;;;;10.75;6.57;;;18.80;65.70;;;;;;5051589;28;20041;-83
2021/09/20 10:22:26;;;;;;;6.45;5.78;;;18.80;63.90;;;;;;5051315;28;20025;-83
2021/09/20 10:24:55;;;;;;;7.43;5.82;;;18.80;63.70;;;;;;5033320;28;20029;-83
2021/09/20 10:27:23;;;;;;;11.13;5.68;;;18.90;63.30;;;;;;5022372;28;20072;-83
2021/09/20 10:29:57;;;;;;;9.68;6.03;;;18.90;63.00;;;;;;5027637;28;20028;-82
2021/09/20 10:32:27;;;;;;;10.80;6.03;;;19.00;63.10;;;;;;5050999;28;20025;-82
2021/09/20 10:35:12;;;;;;;6.97;5.47;;;19.10;61.60;;;;;;5020147;28;20025;-83
2021/09/20 10:37:38;;;;;;;8.00;5.22;;;19.20;62.30;;;;;;5030572;28;20029;-83
2021/09/20 10:40:10;;;;;;;8.93;5.60;;;19.30;62.20;;;;;;5051369;28;20063;-83
2021/09/20 10:42:46;;;;;;;6.85;4.63;;;19.30;60.90;;;;;;5051597;28;20033;-83
2021/09/20 10:45:43;;;;;;;7.25;4.85;;;19.10;60.90;;;;;;5031748;28;20509;-83
2021/09/20 10:48:15;;;;;;;11.67;4.40;;;18.80;60.90;;;;;;5052261;28;20071;-83
2021/09/20 10:51:01;;;;;;;8.52;3.90;;;18.60;61.30;;;;;;5051881;28;20052;-83
2021/09/20 10:53:33;;;;;;;4.95;3.85;;;18.70;62.10;;;;;;5034834;28;20049;-83
2021/09/20 10:56:07;;;;;;;5.75;4.50;;;18.90;61.80;;;;;;5055239;28;20028;-83
2021/09/20 10:58:39;;;;;;;8.30;4.68;;;19.00;60.60;;;;;;5029146;28;20465;-85
2021/09/20 11:01:10;;;;;;;6.15;5.05;;;19.10;60.10;;;;;;5022410;28;20108;-82
2021/09/20 11:03:43;;;;;;;7.75;4.85;;;19.10;59.30;;;;;;5055500;28;20029;-81
2021/09/20 11:06:24;;;;;;;7.43;4.65;;;19.00;59.10;;;;;;5030531;28;20524;-82
2021/09/20 11:08:59;;;;;;;6.65;4.78;;;18.80;59.50;;;;;;5017925;28;20025;-82
2021/09/20 11:11:45;;;;;;;6.00;4.38;;;18.60;59.50;;;;;;5051966;28;21053;-81
2021/09/20 11:14:22;;;;;;;7.40;4.63;;;18.60;60.70;;;;;;5054102;28;20049;-82
2021/09/20 11:16:53;;;;;;;6.93;5.13;;;18.70;59.60;;;;;;5055109;28;20021;-81
2021/09/20 11:19:28;;;;;;;5.88;4.50;;;18.70;59.40;;;;;;5050188;28;20034;-82
2021/09/20 11:22:05;;;;;;;8.15;4.88;;;18.70;60.10;;;;;;5047372;28;20025;-81
2021/09/20 11:24:34;;;;;;;7.57;4.80;;;18.70;59.90;;;;;;5038541;28;20029;-81
2021/09/20 11:27:02;;;;;;;12.02;4.82;;;18.60;59.30;;;;;;5052222;28;20436;-81
2021/09/20 11:29:28;;;;;;;7.57;4.78;;;18.50;60.80;;;;;;5027350;28;20516;-81
2021/09/20 11:31:55;;;;;;;5.57;4.40;;;18.40;60.20;;;;;;5046361;28;20037;-81
2021/09/20 11:34:32;;;;;;;8.25;4.82;;;18.30;60.00;;;;;;5044643;28;20086;-81
2021/09/20 11:37:26;;;;;;;7.57;4.47;;;18.30;60.00;;;;;;5050425;28;20021;-81
2021/09/20 11:39:59;;;;;;;6.25;4.03;;;18.40;60.30;;;;;;5033469;28;20049;-81
2021/09/20 11:42:41;;;;;;;7.90;3.85;;;18.50;59.80;;;;;;5057169;28;20478;-81
2021/09/20 11:45:14;;;;;;;6.25;4.53;;;18.50;59.80;;;;;;5051327;28;20032;-81
2021/09/20 11:47:45;;;;;;;9.40;4.18;;;18.50;59.40;;;;;;5048707;28;20433;-81
2021/09/20 11:50:21;;;;;;;6.70;4.05;;;18.50;59.90;;;;;;5054686;28;20021;-81
2021/09/20 11:52:53;;;;;;;8.40;4.50;;;18.60;60.00;;;;;;5051719;28;20482;-81
2021/09/20 11:55:20;;;;;;;4.68;4.20;;;18.70;59.90;;;;;;5054603;28;20556;-81
2021/09/20 11:57:49;;;;;;;6.15;4.65;;;18.80;59.50;;;;;;5051326;28;20037;-81
2021/09/20 12:00:17;;;;;;;6.18;4.55;;;18.90;58.80;;;;;;5046688;28;20061;-81
2021/09/20 12:02:53;;;;;;;7.40;5.05;;;18.90;59.40;;;;;;5045563;28;20021;-81
2021/09/20 12:05:27;;;;;;;6.70;4.72;;;18.90;59.30;;;;;;5033133;28;20444;-81
2021/09/20 12:07:57;;;;;;;6.30;4.70;;;18.80;58.50;;;;;;5053373;28;22014;-81
2021/09/20 12:10:28;;;;;;;7.40;4.55;;;18.60;58.70;;;;;;5053190;28;20088;-81
2021/09/20 12:12:58;;;;;;;7.22;4.60;;;18.50;59.60;;;;;;5046904;28;20032;-81
2021/09/20 12:15:36;;;;;;;5.80;4.43;;;18.50;59.90;;;;;;5037711;28;20112;-81
2021/09/20 12:18:01;;;;;;;7.30;4.53;;;18.40;59.40;;;;;;5049130;28;20037;-81
2021/09/20 12:20:51;;;;;;;7.55;5.10;;;18.30;59.20;;;;;;5043056;28;20393;-81
2021/09/20 12:23:16;;;;;;;7.60;4.97;;;18.30;59.70;;;;;;5047269;28;20071;-81
2021/09/20 12:25:46;;;;;;;8.50;4.90;;;18.30;59.50;;;;;;5038192;28;20044;-81
2021/09/20 12:28:16;;;;;;;5.78;4.65;;;18.40;59.00;;;;;;5052881;28;20092;-81
2021/09/20 12:30:53;;;;;;;4.93;4.13;;;18.40;58.80;;;;;;5041668;28;20568;-81
2021/09/20 12:33:19;;;;;;;10.35;4.47;;;18.50;59.30;;;;;;5046516;28;20029;-81
2021/09/20 12:35:45;;;;;;;5.82;3.92;;;18.60;59.10;;;;;;5032178;28;20032;-81
2021/09/20 12:38:27;;;;;;;6.00;4.28;;;18.70;59.00;;;;;;5013671;28;20029;-81
2021/09/20 12:40:55;;;;;;;7.93;4.53;;;18.80;57.70;;;;;;5035392;28;20029;-81